Time;durP1;ratioP1;P1;durP2;ratioP2;P2;SDS_P1;SDS_P2;PMS_P1;PMS_P2;Temp;Humidity;BMP_temperature;BMP_pressure;BME280_temperature;BME280_humidity;BME280_pressure;Samples;Min_cycle;Max_cycle;Signal;HPM_P1;HPM_P2
2023/02/01 00:02:04;;;;;;;6.97;5.07;;;;;;;2.50;88.14;94979.94;5034812;28;20446;-84
2023/02/01 00:04:31;;;;;;;6.63;5.20;;;;;;;2.53;88.26;94974.63;5034875;28;20450;-83
2023/02/01 00:06:58;;;;;;;8.07;6.10;;;;;;;2.51;87.41;94975.63;5035200;28;20750;-83
2023/02/01 00:09:26;;;;;;;6.70;5.80;;;;;;;2.44;87.95;94968.16;5034618;28;20948;-83
2023/02/01 00:11:53;;;;;;;7.37;6.67;;;;;;;2.53;89.30;94969.44;5034880;28;20534;-83
2023/02/01 00:14:20;;;;;;;8.57;6.57;;;;;;;2.50;88.33;94969.59;5035075;28;20446;-82
2023/02/01 00:16:47;;;;;;;7.80;6.77;;;;;;;2.53;88.07;94973.78;5034567;28;20956;-82
2023/02/01 00:19:16;;;;;;;12.68;6.57;;;;;;;2.44;87.98;94975.09;5034880;28;20489;-83
2023/02/01 00:21:44;;;;;;;9.15;5.97;;;;;;;2.44;88.26;94972.50;5034888;28;20210;-82
2023/02/01 00:24:11;;;;;;;5.83;4.93;;;;;;;2.44;87.60;94969.91;5034787;28;20313;-82
2023/02/01 00:26:41;;;;;;;6.97;6.10;;;;;;;2.48;87.38;94969.69;5034339;28;20556;-82
2023/02/01 00:29:12;;;;;;;6.47;5.90;;;;;;;2.46;87.47;94973.25;5034396;28;21134;-82
2023/02/01 00:31:39;;;;;;;9.07;5.60;;;;;;;2.40;87.38;94969.25;5034458;28;20446;-83
2023/02/01 00:34:06;;;;;;;5.60;5.07;;;;;;;2.35;87.12;94965.22;5035725;28;20461;-82
2023/02/01 00:36:33;;;;;;;10.33;5.87;;;;;;;2.34;88.24;94971.31;5034366;28;20210;-83
2023/02/01 00:39:00;;;;;;;6.80;5.40;;;;;;;2.35;88.63;94963.47;5034257;28;20563;-83
2023/02/01 00:41:27;;;;;;;6.37;5.70;;;;;;;2.31;87.86;94954.16;5033373;28;20446;-84
2023/02/01 00:43:55;;;;;;;6.47;5.70;;;;;;;2.34;86.69;94959.22;5035128;28;20537;-83
2023/02/01 00:46:23;;;;;;;6.70;5.83;;;;;;;2.35;86.78;94947.94;5034001;28;20922;-82
2023/02/01 00:48:50;;;;;;;7.27;6.17;;;;;;;2.35;86.06;94962.63;5034093;28;20545;-83
2023/02/01 00:51:19;;;;;;;8.83;5.63;;;;;;;2.30;85.62;94952.50;5034324;28;20442;-82
2023/02/01 00:53:46;;;;;;;7.73;6.97;;;;;;;2.37;85.62;94948.69;5034639;28;20446;-83
2023/02/01 00:56:14;;;;;;;7.23;6.50;;;;;;;2.32;84.83;94952.44;5033908;28;20451;-82
2023/02/01 00:58:41;;;;;;;9.40;6.40;;;;;;;2.30;84.21;94949.91;5015261;28;20493;-83
2023/02/01 01:01:10;;;;;;;8.03;6.63;;;;;;;2.36;85.30;94946.19;5035229;28;21011;-82
2023/02/01 01:03:43;;;;;;;8.47;7.43;;;;;;;2.42;84.09;94954.47;5033911;28;20500;-82
2023/02/01 01:06:11;;;;;;;7.17;6.47;;;;;;;2.44;83.11;94942.28;5033710;28;20456;-83
2023/02/01 01:08:39;;;;;;;8.63;5.37;;;;;;;2.29;81.91;94945.66;5015141;28;20496;-83
2023/02/01 01:11:06;;;;;;;9.40;6.23;;;;;;;2.17;82.22;94948.88;5033483;28;20446;-82
2023/02/01 01:13:33;;;;;;;10.30;7.90;;;;;;;2.20;82.09;94953.06;5033282;28;20446;-83
2023/02/01 01:16:02;;;;;;;8.82;5.78;;;;;;;2.13;82.53;94950.78;5033497;28;20431;-83
2023/02/01 01:18:31;;;;;;;5.65;4.70;;;;;;;2.02;82.96;94947.88;5033383;28;20222;-82
2023/02/01 01:20:58;;;;;;;8.75;5.95;;;;;;;2.02;82.96;94947.06;5033488;28;20210;-82
2023/02/01 01:23:25;;;;;;;6.20;4.53;;;;;;;2.08;87.48;94946.75;5033307;28;20195;-82
2023/02/01 01:25:52;;;;;;;14.00;7.93;;;;;;;2.08;82.66;94946.75;5033457;28;20470;-81
2023/02/01 01:28:19;;;;;;;6.20;4.70;;;;;;;2.12;82.38;94948.28;5033717;28;20290;-82
2023/02/01 01:30:46;;;;;;;12.25;7.38;;;;;;;2.15;81.21;94955.88;5033346;28;20203;-82
2023/02/01 01:33:13;;;;;;;6.00;5.40;;;;;;;2.19;82.04;94944.47;5033099;28;20204;-83
2023/02/01 01:35:42;;;;;;;9.50;5.87;;;;;;;2.19;80.92;94944.47;5033185;28;20450;-82
2023/02/01 01:38:11;;;;;;;6.10;5.23;;;;;;;2.28;80.98;94953.50;5032908;28;21044;-82
2023/02/01 01:40:38;;;;;;;13.02;7.70;;;;;;;2.42;80.45;94961.41;5033273;28;20450;-82
2023/02/01 01:43:14;;;;;;;9.63;6.10;;;;;;;2.49;79.50;94963.56;5033037;28;20207;-82
2023/02/01 01:45:40;;;;;;;8.00;5.90;;;;;;;2.50;78.80;94964.41;5032964;28;20215;-83
2023/02/01 01:48:14;;;;;;;10.83;5.97;;;;;;;2.52;78.34;94970.34;5032736;28;20457;-82
2023/02/01 01:50:48;;;;;;;5.63;4.37;;;;;;;2.48;77.45;94976.59;5033068;28;20438;-82
2023/02/01 01:53:19;;;;;;;5.00;4.15;;;;;;;2.36;76.90;94964.31;5032858;28;20449;-82
2023/02/01 01:55:49;;;;;;;23.50;13.13;;;;;;;2.35;77.77;94976.41;5033082;28;20207;-82
2023/02/01 01:58:18;;;;;;;11.07;8.20;;;;;;;2.36;76.97;94977.25;5032527;28;20317;-82
2023/02/01 02:00:45;;;;;;;12.10;8.60;;;;;;;2.45;77.01;94967.25;5032742;28;20478;-83
2023/02/01 02:03:18;;;;;;;6.70;5.73;;;;;;;2.38;76.82;94947.78;5032425;28;20438;-82
2023/02/01 02:05:49;;;;;;;7.35;5.82;;;;;;;2.40;76.52;94953.72;4997627;28;20488;-83
2023/02/01 02:08:16;;;;;;;6.70;4.93;;;;;;;2.27;76.39;94957.84;5032626;28;20254;-84
2023/02/01 02:11:01;;;;;;;8.50;5.40;;;;;;;2.28;77.41;94964.69;5032483;28;20454;-82
2023/02/01 02:13:32;;;;;;;4.93;4.53;;;;;;;2.13;77.91;94953.38;5032766;28;20503;-83
2023/02/01 02:16:14;;;;;;;6.00;4.83;;;;;;;2.13;77.59;94960.31;5032510;28;20263;-83
2023/02/01 02:18:51;;;;;;;4.97;4.18;;;;;;;2.08;77.95;94954.53;5032675;28;20489;-83
2023/02/01 02:21:35;;;;;;;10.27;5.50;;;;;;;1.98;77.68;94945.53;5032143;28;20624;-83
2023/02/01 02:24:35;;;;;;;5.80;5.28;;;;;;;1.98;77.90;94945.53;5032169;28;20207;-83
2023/02/01 02:27:24;;;;;;;6.03;4.78;;;;;;;1.89;78.48;94940.84;5032344;28;20235;-82
2023/02/01 02:30:38;;;;;;;7.00;5.60;;;;;;;1.99;78.25;94936.84;5032374;28;20231;-82
2023/02/01 02:33:27;;;;;;;5.95;5.25;;;;;;;1.97;77.96;94941.28;4971147;28;20264;-83
2023/02/01 02:36:02;;;;;;;7.63;4.78;;;;;;;1.99;78.24;94952.38;4932589;29;20688;-83
2023/02/01 02:38:36;;;;;;;7.20;6.30;;;;;;;1.90;77.57;94953.69;4932617;29;20234;-83
2023/02/01 02:47:23;;;;;;;6.22;4.53;;;;;;;1.89;78.29;94946.84;4932813;29;20966;-82
2023/02/01 02:49:43;;;;;;;3.67;3.38;;;;;;;1.43;79.57;94943.09;4933045;29;20669;-83
2023/02/01 02:54:59;;;;;;;5.85;4.03;;;;;;;1.42;80.62;94928.50;4933097;29;20206;-83
2023/02/01 03:05:51;;;;;;;5.07;4.38;;;;;;;1.56;79.37;94933.84;4934445;28;20285;-83
2023/02/01 03:08:19;;;;;;;10.18;5.47;;;;;;;1.50;79.79;94931.56;4974848;28;20265;-83
2023/02/01 03:10:55;;;;;;;9.15;6.60;;;;;;;1.54;80.95;94940.84;4975070;28;20240;-83
2023/02/01 03:13:30;;;;;;;3.90;3.50;;;;;;;1.57;79.62;94945.03;5013000;28;20685;-83
2023/02/01 03:16:03;;;;;;;9.88;5.88;;;;;;;1.56;78.35;94946.78;5000656;28;20520;-83
2023/02/01 03:18:34;;;;;;;4.22;3.83;;;;;;;1.57;78.96;94961.38;5035793;28;20207;-83
2023/02/01 03:21:07;;;;;;;5.70;4.00;;;;;;;1.62;77.72;94968.91;5036104;28;20259;-83
2023/02/01 03:23:38;;;;;;;3.70;3.40;;;;;;;1.71;79.08;94969.28;5035905;28;20210;-83
2023/02/01 03:26:08;;;;;;;7.53;4.38;;;;;;;1.70;77.24;94957.25;5035805;28;20224;-83
2023/02/01 03:28:38;;;;;;;10.75;5.80;;;;;;;1.83;77.31;94976.44;5035575;28;20203;-83
2023/02/01 03:31:05;;;;;;;3.43;3.13;;;;;;;1.82;76.48;94969.59;5035868;28;20207;-83
2023/02/01 03:33:33;;;;;;;4.30;3.95;;;;;;;1.84;76.97;94974.69;5035678;28;20493;-82
2023/02/01 03:36:10;;;;;;;7.77;4.90;;;;;;;1.90;77.43;94974.38;5035415;28;20246;-83
2023/02/01 03:38:41;;;;;;;6.50;3.55;;;;;;;1.90;76.62;94973.56;5035290;28;20524;-83
2023/02/01 03:41:16;;;;;;;12.95;4.22;;;;;;;1.89;77.18;94974.47;5035369;28;20642;-82
2023/02/01 03:43:52;;;;;;;5.15;3.90;;;;;;;1.82;77.32;94981.69;5035508;28;20566;-83
2023/02/01 03:46:25;;;;;;;3.60;3.30;;;;;;;1.78;77.54;94975.00;5035573;28;20207;-83
2023/02/01 03:48:54;;;;;;;3.58;3.35;;;;;;;1.86;77.66;94978.88;5035232;28;20659;-83
2023/02/01 03:51:25;;;;;;;5.53;3.40;;;;;;;1.87;77.81;94974.53;5035060;28;20206;-83
2023/02/01 03:53:55;;;;;;;4.60;4.30;;;;;;;2.01;78.00;94977.28;5035653;28;20685;-84
2023/02/01 03:56:24;;;;;;;4.03;3.63;;;;;;;2.10;77.57;94976.81;5035262;28;20449;-83
2023/02/01 03:58:59;;;;;;;5.57;3.30;;;;;;;2.10;76.97;94982.00;5000441;28;20500;-83
2023/02/01 04:01:28;;;;;;;5.13;4.00;;;;;;;2.04;77.11;94982.31;5035107;28;20230;-83
2023/02/01 04:03:54;;;;;;;10.40;6.87;;;;;;;2.01;76.57;94984.19;5035078;28;20633;-83
2023/02/01 04:06:23;;;;;;;13.52;8.40;;;;;;;2.10;77.34;94982.00;5034920;28;20451;-83
2023/02/01 04:08:49;;;;;;;8.00;4.23;;;;;;;2.06;77.13;94980.50;5035001;28;20207;-83
2023/02/01 04:11:17;;;;;;;6.18;4.63;;;;;;;2.07;76.87;94978.75;5034757;28;20934;-83
2023/02/01 04:13:44;;;;;;;4.68;4.28;;;;;;;2.09;76.85;94980.34;5035093;28;20195;-83
2023/02/01 04:16:11;;;;;;;3.63;2.83;;;;;;;2.05;77.46;94965.03;5033636;28;20268;-82
2023/02/01 04:18:37;;;;;;;3.88;3.22;;;;;;;2.17;77.52;94972.16;5034808;28;20199;-82
2023/02/01 04:21:04;;;;;;;5.23;4.57;;;;;;;2.21;76.35;94976.28;5034820;28;20196;-82
2023/02/01 04:23:33;;;;;;;6.43;3.50;;;;;;;2.24;76.11;94976.13;5034525;28;20949;-83
2023/02/01 04:26:04;;;;;;;5.23;4.00;;;;;;;2.22;76.52;94975.34;5034800;28;20474;-83
2023/02/01 04:28:31;;;;;;;5.03;3.78;;;;;;;2.20;77.11;94973.75;5034514;28;20516;-83
2023/02/01 04:30:58;;;;;;;3.43;3.10;;;;;;;2.15;78.33;94968.81;5034366;28;20207;-83
2023/02/01 04:33:25;;;;;;;7.03;4.90;;;;;;;2.16;78.75;94978.25;5034535;28;20434;-82
2023/02/01 04:35:52;;;;;;;9.50;6.77;;;;;;;2.13;78.95;94968.06;5034520;28;20449;-82
2023/02/01 04:38:19;;;;;;;4.03;3.73;;;;;;;2.18;79.20;94984.19;4999243;28;20438;-83
2023/02/01 04:40:49;;;;;;;10.53;6.50;;;;;;;2.15;78.52;94981.78;5034185;28;20482;-83
2023/02/01 04:43:16;;;;;;;5.70;4.85;;;;;;;2.20;79.38;94982.38;5034483;28;20489;-83
2023/02/01 04:45:48;;;;;;;5.65;4.00;;;;;;;2.21;79.84;94985.78;5034580;28;20258;-82
2023/02/01 04:48:15;;;;;;;4.40;4.00;;;;;;;2.33;80.76;94972.25;5035366;28;20231;-90
2023/02/01 04:50:42;;;;;;;5.10;4.60;;;;;;;2.48;79.36;94980.03;5018039;28;20470;-87
2023/02/01 04:53:08;;;;;;;5.28;4.53;;;;;;;2.38;79.38;94976.25;5036527;28;20438;-88
2023/02/01 04:55:35;;;;;;;6.80;5.10;;;;;;;2.40;79.28;94977.00;5035493;28;20257;-83
2023/02/01 04:58:03;;;;;;;9.23;6.28;;;;;;;2.36;79.82;94972.06;5036517;28;20446;-82
2023/02/01 05:00:30;;;;;;;8.20;5.67;;;;;;;2.37;80.73;94978.94;5038571;28;20231;-82
2023/02/01 05:02:57;;;;;;;8.07;6.00;;;;;;;2.37;80.43;94984.94;5049319;28;20913;-81
2023/02/01 05:05:24;;;;;;;8.17;5.87;;;;;;;2.40;80.75;94996.91;5050032;28;20445;-81
2023/02/01 05:07:51;;;;;;;6.50;5.50;;;;;;;2.34;80.61;94990.28;5035091;28;20969;-82
2023/02/01 05:10:18;;;;;;;10.03;6.70;;;;;;;2.22;81.85;95000.41;5043668;28;20453;-80
2023/02/01 05:15:31;;;;;;;5.93;5.43;;;;;;;2.12;83.96;95000.03;5045687;28;20421;-81
2023/02/01 05:17:58;;;;;;;9.70;7.57;;;;;;;2.12;83.13;95010.41;5043338;28;21002;-81
2023/02/01 05:20:25;;;;;;;7.03;5.77;;;;;;;2.10;84.31;95013.06;5015213;28;20900;-82
2023/02/01 05:22:52;;;;;;;8.38;5.53;;;;;;;2.07;84.40;95002.03;5001151;28;20499;-81
2023/02/01 05:25:18;;;;;;;8.20;5.77;;;;;;;2.04;84.55;95005.63;5046466;28;20231;-81
2023/02/01 05:27:46;;;;;;;9.07;5.82;;;;;;;2.12;84.51;95011.22;5045669;28;20452;-81
2023/02/01 05:30:13;;;;;;;14.93;9.43;;;;;;;2.24;84.47;95012.34;5038825;28;20199;-82
2023/02/01 05:32:41;;;;;;;14.13;9.60;;;;;;;2.36;83.47;95013.50;5015305;28;20916;-83
2023/02/01 05:35:09;;;;;;;8.80;5.03;;;;;;;2.36;82.97;95009.16;5038252;28;20941;-82
2023/02/01 05:37:36;;;;;;;8.97;6.47;;;;;;;2.38;82.89;95009.91;5043691;28;20445;-80
2023/02/01 05:40:03;;;;;;;12.10;8.10;;;;;;;2.44;82.96;95012.19;5042902;28;20484;-80
2023/02/01 05:42:29;;;;;;;7.47;6.17;;;;;;;2.48;82.97;95002.50;5042705;28;20449;-82
2023/02/01 05:44:56;;;;;;;10.00;6.57;;;;;;;2.47;82.82;95006.00;5048198;28;20440;-82
2023/02/01 05:47:23;;;;;;;11.67;6.80;;;;;;;2.57;82.19;94998.59;5017807;28;20457;-80
2023/02/01 05:49:51;;;;;;;17.97;6.97;;;;;;;2.58;82.56;95008.88;5036335;28;20945;-81
2023/02/01 05:52:19;;;;;;;8.87;6.47;;;;;;;2.58;82.40;95006.28;5050052;28;21259;-83
2023/02/01 05:54:46;;;;;;;7.80;6.60;;;;;;;2.55;82.10;95003.84;5047459;28;20444;-83
2023/02/01 05:57:13;;;;;;;6.67;5.60;;;;;;;2.54;82.40;95009.94;5039436;28;20469;-85
2023/02/01 05:59:40;;;;;;;8.20;5.60;;;;;;;2.53;82.16;94994.50;5035587;28;20493;-85
2023/02/01 06:02:07;;;;;;;7.30;6.00;;;;;;;2.49;82.09;95004.19;5043394;28;20449;-82
2023/02/01 06:04:34;;;;;;;9.97;6.07;;;;;;;2.54;81.56;95003.94;5033065;28;20450;-79
2023/02/01 06:07:03;;;;;;;9.23;5.20;;;;;;;2.52;81.21;95006.59;5032756;28;20898;-82
2023/02/01 06:09:29;;;;;;;12.87;6.20;;;;;;;2.57;81.29;95008.97;5051801;28;20975;-83
2023/02/01 06:11:56;;;;;;;7.93;5.90;;;;;;;2.55;81.26;95011.63;5037236;28;20430;-84
2023/02/01 06:14:24;;;;;;;4.87;4.37;;;;;;;2.60;81.32;95011.38;4985780;28;20458;-82
2023/02/01 06:16:51;;;;;;;6.13;5.53;;;;;;;2.65;79.53;95015.44;5049752;28;20449;-85
2023/02/01 06:19:17;;;;;;;8.80;4.67;;;;;;;2.67;80.41;95015.34;5048264;28;20457;-81
2023/02/01 06:21:44;;;;;;;6.97;5.90;;;;;;;2.65;79.08;95018.03;5032538;28;20830;-82
2023/02/01 06:24:12;;;;;;;14.07;8.05;;;;;;;2.63;80.10;95017.28;5043704;28;20461;-80
2023/02/01 06:26:39;;;;;;;8.80;4.97;;;;;;;2.66;79.50;95017.09;5039777;28;20288;-79
2023/02/01 06:29:07;;;;;;;7.50;6.33;;;;;;;2.71;79.59;95019.47;5042019;28;20488;-81
2023/02/01 06:31:34;;;;;;;12.70;7.80;;;;;;;2.74;79.04;95014.13;5032025;28;20532;-83
2023/02/01 06:34:01;;;;;;;23.40;12.33;;;;;;;2.75;79.09;95015.78;5047854;28;20479;-81
2023/02/01 06:36:27;;;;;;;8.60;5.80;;;;;;;2.80;79.22;95024.16;5050878;28;20452;-82
2023/02/01 06:38:56;;;;;;;10.70;6.72;;;;;;;2.89;78.00;95023.69;5048589;28;20490;-81
2023/02/01 06:41:25;;;;;;;24.23;9.80;;;;;;;2.93;77.47;95014.81;5050012;28;20223;-82
2023/02/01 06:44:00;;;;;;;9.80;5.43;;;;;;;2.97;77.75;95018.94;4992484;28;20960;-80
2023/02/01 06:46:27;;;;;;;9.83;4.73;;;;;;;2.99;76.49;95029.22;5033411;28;20448;-81
2023/02/01 06:48:54;;;;;;;5.30;4.73;;;;;;;3.02;76.39;95023.84;5041959;28;20438;-80
2023/02/01 06:51:26;;;;;;;10.70;6.03;;;;;;;2.99;76.36;95035.22;5033502;28;20469;-82
2023/02/01 06:53:54;;;;;;;6.97;5.50;;;;;;;3.00;76.46;95030.88;5040405;28;20441;-82
2023/02/01 06:56:20;;;;;;;10.57;5.30;;;;;;;3.07;79.03;95027.88;5036845;28;20439;-83
2023/02/01 06:58:49;;;;;;;11.20;5.20;;;;;;;3.15;77.93;95022.28;5033196;28;20492;-79
2023/02/01 07:01:17;;;;;;;7.37;6.07;;;;;;;3.43;84.42;95035.41;4992915;28;20525;-80
2023/02/01 07:03:44;;;;;;;6.43;4.73;;;;;;;3.32;80.23;95031.75;5044533;28;20495;-83
2023/02/01 07:06:10;;;;;;;7.77;4.90;;;;;;;3.35;77.37;95036.75;5040205;28;20978;-78
2023/02/01 07:08:38;;;;;;;6.97;5.87;;;;;;;3.30;76.27;95046.56;5042364;28;20441;-81
2023/02/01 07:11:06;;;;;;;9.00;3.67;;;;;;;3.34;79.69;95053.25;5032312;28;20452;-83
2023/02/01 07:13:34;;;;;;;8.57;4.23;;;;;;;3.28;77.45;95049.22;5032499;28;20456;-81
2023/02/01 07:16:03;;;;;;;15.33;7.10;;;;;;;3.31;75.94;95063.78;5033250;28;20454;-80
2023/02/01 07:18:31;;;;;;;15.13;5.10;;;;;;;3.23;75.79;95058.19;5036033;28;20960;-78
2023/02/01 07:20:59;;;;;;;10.20;4.90;;;;;;;3.26;76.26;95058.84;5033975;28;20561;-79
2023/02/01 07:23:26;;;;;;;9.43;6.17;;;;;;;3.25;75.48;95064.13;5040758;28;20449;-82
2023/02/01 07:25:54;;;;;;;9.73;5.77;;;;;;;3.26;77.13;95063.19;5039585;28;20556;-81
2023/02/01 07:28:21;;;;;;;24.20;12.73;;;;;;;3.26;75.51;95076.16;5032539;28;20458;-79
2023/02/01 07:30:50;;;;;;;8.07;5.57;;;;;;;3.24;75.80;95081.44;5046551;28;20446;-78
2023/02/01 07:33:20;;;;;;;12.47;6.30;;;;;;;3.28;76.84;95082.94;5050174;28;20453;-79
2023/02/01 07:35:47;;;;;;;12.57;7.53;;;;;;;3.33;77.38;95087.88;5037718;28;21020;-78
2023/02/01 07:38:14;;;;;;;9.57;6.00;;;;;;;3.33;76.67;95075.75;5047384;28;20441;-80
2023/02/01 07:40:41;;;;;;;9.03;5.03;;;;;;;3.31;76.08;95084.53;5036720;28;20572;-79
2023/02/01 07:43:07;;;;;;;5.77;4.80;;;;;;;3.44;77.61;95082.94;5042103;28;20500;-79
2023/02/01 07:45:35;;;;;;;5.03;4.57;;;;;;;3.47;73.89;95087.13;5030891;28;20446;-79
2023/02/01 07:48:01;;;;;;;5.40;4.00;;;;;;;3.49;74.07;95086.16;5044121;28;20445;-79
2023/02/01 07:50:30;;;;;;;4.97;4.43;;;;;;;3.50;76.71;95089.59;5032868;28;20461;-80
2023/02/01 07:53:00;;;;;;;5.13;4.40;;;;;;;3.54;77.02;95089.31;5045117;28;20446;-79
2023/02/01 07:55:27;;;;;;;7.00;4.60;;;;;;;3.55;73.91;95095.34;5043689;28;20467;-79
2023/02/01 07:57:57;;;;;;;7.80;5.47;;;;;;;3.61;76.36;95084.63;5050714;28;20519;-79
2023/02/01 08:03:07;;;;;;;8.63;4.80;;;;;;;3.71;77.18;95103.97;5045078;28;20432;-80
2023/02/01 08:05:36;;;;;;;10.77;7.03;;;;;;;3.72;73.79;95109.06;5042150;28;20445;-79
2023/02/01 08:08:03;;;;;;;12.07;8.03;;;;;;;3.72;74.90;95113.41;5033818;28;20537;-82
2023/02/01 08:10:30;;;;;;;13.97;5.47;;;;;;;3.72;73.35;95114.25;5049450;28;20467;-78
2023/02/01 08:12:59;;;;;;;7.10;5.70;;;;;;;3.68;73.93;95096.34;5050247;28;20950;-79
2023/02/01 08:15:27;;;;;;;7.40;4.50;;;;;;;3.76;77.47;95095.91;5040253;28;20470;-78
2023/02/01 08:17:54;;;;;;;9.43;5.83;;;;;;;3.77;73.91;95110.59;5033016;28;20485;-78
2023/02/01 08:20:22;;;;;;;11.67;5.83;;;;;;;3.83;73.23;95110.25;5037271;28;20481;-80
2023/02/01 08:22:51;;;;;;;10.80;5.13;;;;;;;3.89;74.07;95089.97;5040891;28;20512;-78
2023/02/01 08:25:18;;;;;;;13.73;5.63;;;;;;;3.93;72.41;95096.66;5042676;28;20482;-77
2023/02/01 08:27:45;;;;;;;10.47;6.10;;;;;;;3.92;72.32;95094.16;5045306;28;20492;-82
2023/02/01 08:30:13;;;;;;;11.13;5.03;;;;;;;3.95;70.83;95105.22;5041980;28;20443;-80
2023/02/01 08:32:40;;;;;;;13.37;4.70;;;;;;;3.96;70.90;95108.66;5034154;28;20524;-80
2023/02/01 08:35:08;;;;;;;4.90;4.40;;;;;;;4.00;71.73;95103.19;5034156;28;20453;-79
2023/02/01 08:37:35;;;;;;;4.43;4.03;;;;;;;4.06;70.86;95106.41;5033730;28;20496;-79
2023/02/01 08:40:04;;;;;;;4.97;3.33;;;;;;;4.13;72.91;95105.94;5034095;28;20504;-81
2023/02/01 08:45:15;;;;;;;10.77;3.83;;;;;;;4.15;72.14;95109.31;5041928;28;20507;-80
2023/02/01 08:47:41;;;;;;;5.50;4.30;;;;;;;4.31;71.84;95110.09;5054057;28;20437;-80
2023/02/01 08:50:10;;;;;;;14.53;4.77;;;;;;;4.34;71.75;95107.34;5053312;28;20446;-80
2023/02/01 08:52:37;;;;;;;7.77;4.60;;;;;;;4.36;69.61;95096.88;5053435;28;20449;-79
2023/02/01 08:55:06;;;;;;;4.93;4.03;;;;;;;4.42;70.16;95104.31;5053156;28;20437;-80
2023/02/01 08:57:33;;;;;;;6.40;3.90;;;;;;;4.43;70.54;95110.34;5053818;28;20544;-80
2023/02/01 08:59:59;;;;;;;2.87;2.67;;;;;;;4.40;69.81;95089.72;5053264;28;20449;-80
2023/02/01 09:02:27;;;;;;;12.40;4.50;;;;;;;4.35;69.17;95098.63;5052811;28;20575;-81
2023/02/01 09:04:53;;;;;;;6.20;4.37;;;;;;;4.40;68.73;95097.53;5018279;28;20456;-80
2023/02/01 09:07:20;;;;;;;6.97;4.20;;;;;;;4.52;69.05;95102.84;5053667;28;20448;-80
2023/02/01 09:09:47;;;;;;;10.03;5.30;;;;;;;4.63;71.15;95102.25;5052599;28;20563;-79
2023/02/01 09:12:15;;;;;;;13.53;6.43;;;;;;;4.70;68.07;95100.09;5053287;28;20449;-79
2023/02/01 09:14:42;;;;;;;4.97;3.43;;;;;;;4.82;69.23;95101.97;5046728;28;20511;-79
2023/02/01 09:17:09;;;;;;;7.77;4.90;;;;;;;4.82;67.90;95110.59;5033320;28;20481;-81
2023/02/01 09:19:36;;;;;;;5.57;3.67;;;;;;;4.91;69.25;95111.81;5034168;28;20940;-78
2023/02/01 09:22:03;;;;;;;6.83;4.07;;;;;;;5.00;68.22;95120.88;5053355;28;20531;-79
2023/02/01 09:24:29;;;;;;;6.93;4.70;;;;;;;4.96;68.84;95121.03;5053135;28;20977;-79
2023/02/01 09:26:56;;;;;;;10.07;6.83;;;;;;;4.94;69.03;95116.88;5035752;28;20450;-78
2023/02/01 09:29:24;;;;;;;8.20;5.60;;;;;;;4.98;75.95;95115.75;5001596;28;20452;-78
2023/02/01 09:31:51;;;;;;;14.27;6.63;;;;;;;5.01;69.08;95117.34;5052568;28;20808;-78
2023/02/01 09:34:18;;;;;;;4.20;3.80;;;;;;;4.98;70.38;95115.75;5052807;28;20437;-78
2023/02/01 09:36:45;;;;;;;8.70;4.70;;;;;;;4.96;67.80;95112.41;5035094;28;20787;-81
2023/02/01 09:39:11;;;;;;;7.60;4.40;;;;;;;5.01;69.74;95112.97;5032389;28;20442;-79
2023/02/01 09:41:52;;;;;;;9.60;5.80;;;;;;;4.97;67.89;95112.31;5049582;28;20476;-79
2023/02/01 09:44:39;;;;;;;6.43;4.27;;;;;;;4.91;66.81;95094.47;5052500;28;20876;-80
2023/02/01 09:47:13;;;;;;;4.20;3.80;;;;;;;4.98;68.78;95093.19;5032665;28;20426;-81
2023/02/01 09:49:50;;;;;;;9.70;4.70;;;;;;;4.97;68.90;95096.72;5032756;28;20536;-80
2023/02/01 09:52:21;;;;;;;5.80;3.70;;;;;;;5.00;67.53;95097.47;5032908;28;20446;-79
2023/02/01 09:54:57;;;;;;;3.57;2.60;;;;;;;4.97;66.27;95096.72;5033081;28;20443;-79
2023/02/01 09:57:27;;;;;;;5.03;3.50;;;;;;;4.98;67.55;95092.34;4999065;28;20816;-80
2023/02/01 10:00:01;;;;;;;4.40;4.00;;;;;;;5.02;70.70;95067.84;5052036;28;20519;-79
2023/02/01 10:02:30;;;;;;;6.87;3.50;;;;;;;5.01;66.63;95075.72;5000947;28;20481;-79
2023/02/01 10:05:00;;;;;;;8.67;5.70;;;;;;;5.09;66.57;95076.09;5052085;28;20459;-80
2023/02/01 10:07:38;;;;;;;7.00;3.97;;;;;;;5.15;66.42;95068.75;5052506;28;20932;-80
2023/02/01 10:10:12;;;;;;;9.27;5.80;;;;;;;5.20;64.87;95073.66;5054392;28;20502;-78
2023/02/01 10:13:09;;;;;;;7.23;4.20;;;;;;;5.21;64.80;95078.81;5051648;28;20445;-81
2023/02/01 10:15:55;;;;;;;3.33;2.83;;;;;;;5.18;64.79;95068.56;5052100;28;20457;-80
2023/02/01 10:18:35;;;;;;;4.90;3.50;;;;;;;5.14;65.83;95061.88;5052262;28;20536;-80
2023/02/01 10:21:10;;;;;;;9.07;4.70;;;;;;;5.23;65.06;95060.50;5051349;28;20483;-82
2023/02/01 10:23:58;;;;;;;6.50;4.90;;;;;;;5.32;63.56;95065.13;5052089;28;20453;-79
2023/02/01 10:26:30;;;;;;;6.40;3.90;;;;;;;5.46;64.05;95051.25;4997393;28;20871;-80
2023/02/01 10:28:59;;;;;;;4.97;4.00;;;;;;;5.57;64.33;95044.47;5050594;28;20855;-80
2023/02/01 10:31:31;;;;;;;11.60;7.43;;;;;;;5.68;63.81;95043.78;5051627;28;20446;-81
2023/02/01 10:34:00;;;;;;;9.27;5.10;;;;;;;5.82;63.14;95042.91;5052276;28;20457;-81
2023/02/01 10:36:31;;;;;;;12.80;7.53;;;;;;;5.94;62.92;95036.13;5051888;28;20491;-81
2023/02/01 10:38:59;;;;;;;14.53;8.33;;;;;;;5.93;63.04;95019.66;5051571;28;20441;-80
2023/02/01 10:41:33;;;;;;;11.53;6.60;;;;;;;6.08;62.16;95030.88;5051612;28;21073;-79
2023/02/01 10:44:04;;;;;;;7.33;4.10;;;;;;;6.16;62.28;95032.03;5052123;28;20441;-80
2023/02/01 10:46:34;;;;;;;12.20;5.70;;;;;;;6.27;61.49;95025.25;5052993;28;20452;-81
2023/02/01 10:49:06;;;;;;;4.77;3.90;;;;;;;6.37;60.93;95028.97;5017196;28;20835;-81
2023/02/01 10:51:43;;;;;;;9.67;5.13;;;;;;;6.36;60.06;95022.91;5043367;28;20460;-82
2023/02/01 10:54:17;;;;;;;8.80;4.60;;;;;;;6.60;60.70;95014.38;5050452;28;20499;-80
2023/02/01 10:56:46;;;;;;;11.83;6.20;;;;;;;6.79;59.75;95020.03;5051673;28;20448;-80
2023/02/01 10:59:17;;;;;;;6.50;4.40;;;;;;;6.68;58.85;95015.53;5040016;28;20529;-80
2023/02/01 11:01:47;;;;;;;13.27;4.80;;;;;;;6.63;59.38;95003.72;5044982;28;20490;-81
2023/02/01 11:04:15;;;;;;;5.00;4.30;;;;;;;6.59;59.28;95013.53;5033199;28;20533;-80
2023/02/01 11:06:44;;;;;;;8.60;4.67;;;;;;;6.62;60.18;95007.28;5043051;28;20976;-79
2023/02/01 11:09:17;;;;;;;7.93;3.60;;;;;;;6.60;59.55;95012.59;5035607;28;20503;-80
2023/02/01 11:11:56;;;;;;;6.90;5.63;;;;;;;6.53;63.65;95013.94;5050077;28;20936;-80
2023/02/01 11:14:33;;;;;;;6.23;3.87;;;;;;;6.53;61.22;95013.94;5038603;28;20446;-82
2023/02/01 11:17:02;;;;;;;6.00;4.77;;;;;;;6.52;60.67;95014.88;5051584;28;20506;-80
2023/02/01 11:19:30;;;;;;;3.90;3.13;;;;;;;6.59;60.18;95018.75;5048252;28;20446;-80
2023/02/01 11:22:00;;;;;;;6.30;2.90;;;;;;;6.75;59.37;95008.97;5031420;28;20860;-82
2023/02/01 11:24:30;;;;;;;4.37;3.00;;;;;;;6.87;59.14;95009.06;5049176;28;20457;-80
2023/02/01 11:26:58;;;;;;;11.00;4.47;;;;;;;6.81;57.85;95005.94;5050024;28;20503;-79
2023/02/01 11:29:29;;;;;;;3.60;2.90;;;;;;;6.77;61.08;94996.66;5050451;28;20465;-82
2023/02/01 11:31:58;;;;;;;7.17;4.10;;;;;;;6.88;59.81;95005.50;5042338;28;20500;-79
2023/02/01 11:34:33;;;;;;;8.93;4.30;;;;;;;6.93;59.11;95000.81;4996926;28;20460;-81
2023/02/01 11:37:03;;;;;;;12.70;6.30;;;;;;;7.04;57.87;95003.53;5047819;28;20509;-82
2023/02/01 11:39:31;;;;;;;4.03;3.03;;;;;;;7.12;57.23;95011.66;5043444;28;20490;-83
2023/02/01 11:42:03;;;;;;;7.63;3.40;;;;;;;7.19;57.54;95007.66;5044321;28;20539;-81
2023/02/01 11:44:34;;;;;;;6.77;2.63;;;;;;;7.26;57.06;94990.66;5047333;28;20541;-82
2023/02/01 11:47:21;;;;;;;13.57;5.40;;;;;;;7.38;58.09;94995.00;5052520;28;20460;-80
2023/02/01 11:49:51;;;;;;;9.73;4.40;;;;;;;7.41;56.96;94981.72;5039836;28;20513;-80
2023/02/01 11:52:30;;;;;;;3.63;2.53;;;;;;;7.36;56.60;94991.66;5047469;28;20446;-80
2023/02/01 11:55:14;;;;;;;9.57;5.43;;;;;;;7.35;57.11;94990.00;5035098;28;20805;-80
2023/02/01 11:57:53;;;;;;;23.13;12.70;;;;;;;7.39;57.58;94972.34;5035296;28;20902;-80
2023/02/01 12:00:49;;;;;;;5.27;3.80;;;;;;;7.47;58.15;94964.78;5034876;28;20541;-80
2023/02/01 12:04:09;;;;;;;7.20;3.60;;;;;;;7.58;57.01;94967.50;4967449;28;20492;-79
2023/02/01 12:06:49;;;;;;;3.33;2.83;;;;;;;7.48;56.49;94969.06;4859112;29;20462;-80
2023/02/01 12:09:36;;;;;;;4.57;3.50;;;;;;;7.47;56.99;94962.19;4860454;29;20568;-80
2023/02/01 12:12:10;;;;;;;4.70;3.33;;;;;;;7.56;56.80;94955.50;4873100;29;20498;-80
2023/02/01 12:14:52;;;;;;;9.30;4.93;;;;;;;7.61;56.70;94962.03;4815877;29;20539;-81
2023/02/01 12:17:43;;;;;;;3.27;2.57;;;;;;;7.60;56.39;94949.94;4860987;29;20460;-80
2023/02/01 12:20:29;;;;;;;3.93;2.80;;;;;;;7.51;56.74;94954.97;4865485;29;20455;-80